Moss Bluff, Texas
Current Conditions -  °F | °C
As of 12:35 AM on Tuesday 21 Oct 2014 (Local Time) from K6R3 Reporting Station
Clear Clear  
Wind Chill: 56°   Ceiling: Unl
Heat Index: 56°   Visibility: 7mi
Dew Point: 56°   Wind: 0mph
Humidity: 98%   Direction: NA
Pressure: 30.04"   Gusts: NA
Location:  30.0821°N, 94.7401°W
Report Text: K6R3 210535Z AUTO 00000KT 7SM CLR 14/13 A3004 RMK AO2 T01350132
Loading
Personal Weather Stations






























Interactive Weather Map
Tropical Storm Tracking
New forecast layout! Learn more

10-Day Weather Forecast

Advertisements
Track Severe Weather on mobile